Alto Boa Vista, Brazil
Current Conditions -  °F | °C
As of 11:00 AM on Friday 26 Dec 2014 (Local Time) from SBPJ Reporting Station
Few Clouds Few Clouds  
Wind Chill: 84°   Ceiling: Unl
Heat Index: 90°   Visibility: 6mi
Dew Point: 72°   Wind: 10mph
Humidity: 66%   Direction: 220°SW
Pressure: 29.97"   Gusts: NA
Location:  11.67°S, 51.39°W
Report Text: SBPJ 261400Z 22009KT 9999 FEW025 29/22 Q1015
Loading
Personal Weather Stations






























Interactive Weather Map New forecast layout! Learn more

10-Day Weather Forecast

Advertisements
Track Severe Weather on mobile